x

Cape Elizabeth- 45nm Nw Of Aberdeen, Wa (46041) Wave Buoy

6:50 - Thu 25th Aug 2016 All times are PDT. -7 hours from GMT.

  • Sig Wave height 4.3ft
  • Swell Direction
  • Peak Period 11s
  • Average Period 6s
  • Wind
    2mph
  • Sea Temp 58°f
  • Luft Temp 57°f
  • Sea Pressure 1019.5mb
  • Cape Elizabeth- 45nm Nw Of Aberdeen, Wa
  • Cape Elizabeth- 45nm Nw Of Aberdeen, Wa

More Historic Weather Station data

Upgrade to MSW Pro to gain access to the past 30 days of data for over 8000 Wavebouys and Weather Stations around the globe.

Join Pro

Comparision Forecast

View Surf forecast
   
Do 08/25 6:50 4.5ft 11s 6s 2
mph
1019.5mb 58f 57f
5:50 4ft 11s 6s 7 9 mph 1019.6mb 58f 57f
4:50 4ft 7s 6s 7 9 mph 1019.5mb 58f 57f
3:50 4ft 7s 7s 7
mph
1019.6mb 58f 58f
2:50 3.5ft 8s 6s 7 9 mph 1019.8mb 58f 58f
1:50 3.5ft 7s 6s 7 9 mph 1020mb 58f 58f
12:50 3.5ft 8s 5s 7
mph
1020.1mb 58f 60f
Mi 08/24 11:50 4ft 8s 5s 9 11 mph 1020.2mb 58f 60f
10:50 4.5ft 7s 5s 11
mph
1020.3mb 58f 61f
9:50 4.5ft 7s 5s 9 11 mph 1020.3mb 58f 60f
7:50 4ft 7s 5s 20 22 mph 1019.5mb 58f 63f
6:50 4ft 7s 6s 13 16 mph 1020mb 60f 62f
5:50 4ft 8s 6s 7 11 mph 1020.5mb 60f 64f
4:50 3.5ft 7s 6s 4 7 mph 1021.1mb 60f 61f
3:50 3.5ft 7s 6s 7 9 mph 1021.4mb 60f 60f
2:50 3.5ft 7s 6s 4 7 mph 1022.1mb 60f 60f
1:50 3.5ft 7s 6s 7 9 mph 1022.7mb 60f 59f
12:50 3.5ft 7s 6s 4
mph
1023mb 60f 60f
11:50 3.5ft 7s 6s 2 4 mph 1023.5mb 58f 58f
10:50 3.5ft 7s 6s 2
mph
1023.6mb 57f 57f
9:50 4ft 7s 6s 2
mph
1023.4mb 57f 57f
8:50 4ft 7s 6s 4 7 mph 1023.3mb 56f 57f
7:50 3.5ft 6s 6s 7 9 mph 1023.1mb 56f 57f
6:50 3.5ft 6s 5s 7
mph
1022.8mb 57f 56f
5:50 3.5ft 6s 5s 4 7 mph 1022.5mb 57f 57f
4:50 3.5ft 7s 5s 7 9 mph 1022.3mb 57f 57f
3:50 3.5ft 6s 5s 9 11 mph 1022.3mb 57f 57f
2:50 3ft 7s 5s 9 11 mph 1022.2mb 57f 57f
1:50 3ft 7s 5s 9 11 mph 1022.3mb 57f 57f
12:50 3.5ft 15s 5s 9 13 mph 1022.5mb 56f 57f
Di 08/23 11:50 3.5ft 7s 5s 11 13 mph 1022.6mb 56f 57f
10:50 3.5ft 15s 5s 11 16 mph 1022.6mb 57f 57f
9:50 3.5ft 7s 5s 9 11 mph 1022.8mb 57f 58f
8:50 3.5ft 7s 5s 9 11 mph 1022.5mb 57f 58f
7:50 3.5ft 6s 5s 11 13 mph 1022.4mb 58f 58f
6:50 3.5ft 15s 6s 9 11 mph 1022.3mb 58f 59f
5:50 3ft 7s 5s 9 11 mph 1022.3mb 58f 59f
4:50 3.5ft 7s 6s 11 13 mph 1022.5mb 59f 59f
3:50 3.5ft 6s 6s 7
mph
1022.8mb 59f 57f
2:50 3.5ft 7s 6s 4
mph
1023.1mb 58f 55f
1:50 3ft 7s 5s 4
mph
1023.4mb 58f 54f
12:50 3.5ft 8s 6s 7 9 mph 1023.6mb 58f 54f
11:50 3.5ft 15s 6s 4 7 mph 1023.6mb 57f 52f
10:50 3.5ft 6s 6s 4 7 mph 1023.6mb 57f 51f
9:50 3.5ft 7s 6s 2 4 mph 1023.1mb 57f 51f
8:50 3.5ft 7s 6s 2 4 mph 1022.8mb 57f 51f
7:50 3.5ft 8s 6s 2 4 mph 1022.2mb 57f 51f
6:50 3.5ft 8s 6s 4 7 mph 1021.7mb 57f 51f
5:50 3.5ft 8s 6s 4 7 mph 1021.3mb 57f 52f
4:50 3.5ft 8s 6s 4 7 mph 1020.9mb 57f 53f
3:50 3.5ft 8s 6s 4 9 mph 1020.8mb 57f 53f
2:50 4ft 8s 6s 9 11 mph 1020.6mb 57f 54f
1:50 4ft 8s 6s 9 11 mph 1020.6mb 57f 54f
12:50 4.5ft 8s 6s 9 11 mph 1020.6mb 56f 55f
Mo 08/22 11:50 4ft 8s 6s 9 11 mph 1020.7mb 56f 55f
10:50 4.5ft 8s 6s 11 13 mph 1020.7mb 56f 55f
9:50 4ft 8s 6s 11 13 mph 1020.6mb 56f 56f
8:50 4ft 7s 6s 9 11 mph 1020.2mb 57f 56f
7:50 4ft 8s 6s 9
mph
1019.9mb 56f 57f
6:50 3.5ft 8s 6s 9 11 mph 1019.8mb 56f 57f
5:50 4ft 8s 6s 9 11 mph 1019.8mb 57f 58f
4:50 4ft 8s 6s 9 11 mph 1019.6mb 57f 57f
3:50 4.5ft 8s 6s 9 11 mph 1019.8mb 57f 57f
2:50 4.5ft 7s 6s 11
mph
1019.9mb 57f 57f
1:50 4.5ft 8s 6s 7 9 mph 1019.7mb 57f 58f
12:50 4.5ft 8s 6s 7 9 mph 1020.1mb 56f 58f
11:50 5ft 7s 6s 4 7 mph 1020.1mb 56f 57f
10:50 5ft 7s 6s 9 11 mph 1019.9mb 56f 57f
9:50 5ft 7s 6s 7 9 mph 1019.5mb 55f 57f
8:50 5.5ft 7s 6s 11 18 mph 1019mb 55f 57f
7:50 5ft 7s 6s 16 20 mph 1018.4mb 55f 57f
6:50 5ft 8s 6s 13
mph
1018mb 55f 57f
5:50 5ft 8s 6s 11 16 mph 1017.7mb 56f 57f
4:50 4.5ft 8s 6s 11 16 mph 1017.5mb 56f 57f
3:50 5ft 7s 6s 11
mph
1017.3mb 56f 57f
2:50 5ft 8s 6s 9 11 mph 1017.3mb 56f 57f
1:50 5ft 7s 6s 9 11 mph 1017.1mb 56f 57f
12:50 5ft 7s 6s 9 11 mph 1017.3mb 56f 57f
So 08/21 11:50 5.5ft 7s 6s 13 16 mph 1017.3mb 56f 57f
10:50 5ft 7s 6s 9 13 mph 1017.6mb 56f 58f
9:50 5.5ft 8s 6s 11
mph
1017.1mb 56f 57f
7:50 5ft 7s 6s 7 11 mph 1016.4mb 56f 57f
6:50 5ft 7s 6s 4 7 mph 1016mb 56f 57f
5:50 5ft 7s 6s 7 9 mph 1016.2mb 56f 58f
4:50 5.5ft 8s 6s 9 11 mph 1015.9mb 56f 57f
3:50 5ft 8s 6s 9 11 mph 1015.9mb 56f 57f